sensor_id;sensor_type;location;lat;lon;timestamp;pressure;altitude;pressure_sealevel;temperature;humidity
41467;BME280;27205;53.690;19.948;2023-03-12T00:02:01;98591.05;;;0.07;76.45
41467;BME280;27205;53.690;19.948;2023-03-12T00:07:06;98587.11;;;0.17;76.55
41467;BME280;27205;53.690;19.948;2023-03-12T00:12:10;98580.62;;;0.27;76.41
41467;BME280;27205;53.690;19.948;2023-03-12T00:17:14;98573.20;;;0.34;76.43
41467;BME280;27205;53.690;19.948;2023-03-12T00:22:17;98575.98;;;0.42;76.37
41467;BME280;27205;53.690;19.948;2023-03-12T00:27:25;98559.00;;;0.50;76.33
41467;BME280;27205;53.690;19.948;2023-03-12T00:32:31;98568.71;;;0.55;76.01
41467;BME280;27205;53.690;19.948;2023-03-12T00:37:36;98559.83;;;0.62;76.31
41467;BME280;27205;53.690;19.948;2023-03-12T00:42:39;98559.58;;;0.70;76.07
41467;BME280;27205;53.690;19.948;2023-03-12T00:47:43;98551.88;;;0.74;75.90
41467;BME280;27205;53.690;19.948;2023-03-12T00:52:46;98544.94;;;0.77;76.11
41467;BME280;27205;53.690;19.948;2023-03-12T00:57:50;98537.30;;;0.83;76.12
41467;BME280;27205;53.690;19.948;2023-03-12T01:02:53;98542.77;;;0.89;76.34
41467;BME280;27205;53.690;19.948;2023-03-12T01:07:57;98537.83;;;0.92;76.37
41467;BME280;27205;53.690;19.948;2023-03-12T01:13:00;98533.16;;;0.97;76.39
41467;BME280;27205;53.690;19.948;2023-03-12T01:18:04;98524.89;;;1.04;76.42
41467;BME280;27205;53.690;19.948;2023-03-12T01:23:08;98527.05;;;1.08;76.55
41467;BME280;27205;53.690;19.948;2023-03-12T01:28:12;98526.13;;;1.12;76.83
41467;BME280;27205;53.690;19.948;2023-03-12T01:33:15;98532.65;;;1.18;76.88
41467;BME280;27205;53.690;19.948;2023-03-12T01:38:18;98524.88;;;1.23;76.98
41467;BME280;27205;53.690;19.948;2023-03-12T01:43:27;98520.08;;;1.28;77.10
41467;BME280;27205;53.690;19.948;2023-03-12T01:48:37;98516.21;;;1.34;77.11
41467;BME280;27205;53.690;19.948;2023-03-12T01:53:45;98509.93;;;1.38;77.42
41467;BME280;27205;53.690;19.948;2023-03-12T01:58:54;98508.00;;;1.44;77.46
41467;BME280;27205;53.690;19.948;2023-03-12T02:03:59;98507.92;;;1.48;77.41
41467;BME280;27205;53.690;19.948;2023-03-12T02:09:05;98510.58;;;1.52;77.43
41467;BME280;27205;53.690;19.948;2023-03-12T02:14:09;98519.70;;;1.57;77.31
41467;BME280;27205;53.690;19.948;2023-03-12T02:19:24;98520.11;;;1.58;77.28
41467;BME280;27205;53.690;19.948;2023-03-12T02:24:52;98523.30;;;1.58;77.53
41467;BME280;27205;53.690;19.948;2023-03-12T02:29:57;98526.77;;;1.59;77.57
41467;BME280;27205;53.690;19.948;2023-03-12T02:35:03;98540.87;;;1.57;77.92
41467;BME280;27205;53.690;19.948;2023-03-12T02:40:17;98535.12;;;1.53;78.01
41467;BME280;27205;53.690;19.948;2023-03-12T02:45:24;98534.04;;;1.53;78.14
41467;BME280;27205;53.690;19.948;2023-03-12T02:50:28;98538.21;;;1.51;78.38
41467;BME280;27205;53.690;19.948;2023-03-12T02:55:31;98542.02;;;1.47;78.82
41467;BME280;27205;53.690;19.948;2023-03-12T03:00:35;98547.84;;;1.31;79.56
41467;BME280;27205;53.690;19.948;2023-03-12T03:05:39;98550.83;;;1.31;79.98
41467;BME280;27205;53.690;19.948;2023-03-12T03:10:43;98551.95;;;1.32;80.16
41467;BME280;27205;53.690;19.948;2023-03-12T03:15:46;98558.20;;;1.34;80.24
41467;BME280;27205;53.690;19.948;2023-03-12T03:21:02;98557.13;;;1.38;80.01
41467;BME280;27205;53.690;19.948;2023-03-12T03:26:05;98565.41;;;1.40;79.97
41467;BME280;27205;53.690;19.948;2023-03-12T03:31:09;98570.89;;;1.37;79.97
41467;BME280;27205;53.690;19.948;2023-03-12T03:36:13;98578.37;;;1.36;79.94
41467;BME280;27205;53.690;19.948;2023-03-12T03:41:18;98576.43;;;1.34;79.78
41467;BME280;27205;53.690;19.948;2023-03-12T03:46:22;98584.42;;;1.36;79.58
41467;BME280;27205;53.690;19.948;2023-03-12T03:51:26;98584.52;;;1.35;78.95
41467;BME280;27205;53.690;19.948;2023-03-12T03:56:30;98586.55;;;1.34;78.35
41467;BME280;27205;53.690;19.948;2023-03-12T04:01:33;98585.80;;;1.34;78.09
41467;BME280;27205;53.690;19.948;2023-03-12T04:06:37;98601.60;;;1.34;78.16
41467;BME280;27205;53.690;19.948;2023-03-12T04:11:40;98603.02;;;1.27;78.22
41467;BME280;27205;53.690;19.948;2023-03-12T04:16:43;98602.66;;;1.17;78.26
41467;BME280;27205;53.690;19.948;2023-03-12T04:21:47;98600.58;;;1.05;78.37
41467;BME280;27205;53.690;19.948;2023-03-12T04:26:50;98617.08;;;0.94;78.47
41467;BME280;27205;53.690;19.948;2023-03-12T04:31:54;98615.51;;;0.85;78.17
41467;BME280;27205;53.690;19.948;2023-03-12T04:37:00;98617.06;;;0.78;78.20
41467;BME280;27205;53.690;19.948;2023-03-12T04:42:05;98631.29;;;0.71;78.23
41467;BME280;27205;53.690;19.948;2023-03-12T04:47:08;98627.89;;;0.64;78.34
41467;BME280;27205;53.690;19.948;2023-03-12T04:52:12;98639.76;;;0.58;78.63
41467;BME280;27205;53.690;19.948;2023-03-12T04:57:15;98640.04;;;0.54;78.72
41467;BME280;27205;53.690;19.948;2023-03-12T05:02:19;98637.61;;;0.55;78.84
41467;BME280;27205;53.690;19.948;2023-03-12T05:07:22;98638.98;;;0.58;78.89
41467;BME280;27205;53.690;19.948;2023-03-12T05:12:26;98648.63;;;0.59;78.76
41467;BME280;27205;53.690;19.948;2023-03-12T05:17:29;98644.45;;;0.56;78.65
41467;BME280;27205;53.690;19.948;2023-03-12T05:22:33;98647.39;;;0.57;78.48
41467;BME280;27205;53.690;19.948;2023-03-12T05:27:36;98656.92;;;0.59;78.44
41467;BME280;27205;53.690;19.948;2023-03-12T05:32:40;98660.32;;;0.59;78.42
41467;BME280;27205;53.690;19.948;2023-03-12T05:37:43;98666.65;;;0.57;78.55
41467;BME280;27205;53.690;19.948;2023-03-12T05:42:47;98676.41;;;0.57;78.62
41467;BME280;27205;53.690;19.948;2023-03-12T05:47:51;98680.77;;;0.59;78.26
41467;BME280;27205;53.690;19.948;2023-03-12T05:52:54;98691.45;;;0.59;78.13
41467;BME280;27205;53.690;19.948;2023-03-12T05:57:58;98702.60;;;0.61;78.02
41467;BME280;27205;53.690;19.948;2023-03-12T06:03:01;98708.23;;;0.64;77.89
41467;BME280;27205;53.690;19.948;2023-03-12T06:08:05;98708.67;;;0.67;77.58
41467;BME280;27205;53.690;19.948;2023-03-12T06:13:09;98706.94;;;0.73;77.35
41467;BME280;27205;53.690;19.948;2023-03-12T06:18:14;98711.44;;;0.81;76.95
41467;BME280;27205;53.690;19.948;2023-03-12T06:23:18;98715.31;;;0.98;76.96
41467;BME280;27205;53.690;19.948;2023-03-12T06:28:23;98727.58;;;1.14;76.40
41467;BME280;27205;53.690;19.948;2023-03-12T06:33:27;98735.65;;;1.20;76.21
41467;BME280;27205;53.690;19.948;2023-03-12T06:38:31;98748.17;;;1.26;75.73
41467;BME280;27205;53.690;19.948;2023-03-12T06:43:35;98761.70;;;1.30;74.90
41467;BME280;27205;53.690;19.948;2023-03-12T06:48:39;98764.48;;;1.39;74.48
41467;BME280;27205;53.690;19.948;2023-03-12T06:53:44;98782.67;;;1.52;73.96
41467;BME280;27205;53.690;19.948;2023-03-12T06:58:47;98774.52;;;1.76;73.60
41467;BME280;27205;53.690;19.948;2023-03-12T07:03:51;98786.44;;;1.90;73.13
41467;BME280;27205;53.690;19.948;2023-03-12T07:08:55;98793.80;;;2.07;72.64
41467;BME280;27205;53.690;19.948;2023-03-12T07:13:58;98803.45;;;2.20;72.03
41467;BME280;27205;53.690;19.948;2023-03-12T07:19:02;98811.54;;;2.54;71.74
41467;BME280;27205;53.690;19.948;2023-03-12T07:24:07;98828.66;;;2.78;70.92
41467;BME280;27205;53.690;19.948;2023-03-12T07:29:11;98829.09;;;2.65;69.87
41467;BME280;27205;53.690;19.948;2023-03-12T07:34:15;98825.83;;;2.67;69.32
41467;BME280;27205;53.690;19.948;2023-03-12T07:39:18;98831.89;;;2.92;69.05
41467;BME280;27205;53.690;19.948;2023-03-12T07:44:23;98836.86;;;2.85;68.48
41467;BME280;27205;53.690;19.948;2023-03-12T07:49:28;98828.55;;;2.90;68.60
41467;BME280;27205;53.690;19.948;2023-03-12T07:54:31;98838.30;;;2.93;68.07
41467;BME280;27205;53.690;19.948;2023-03-12T07:59:35;98846.45;;;2.76;67.21
41467;BME280;27205;53.690;19.948;2023-03-12T08:04:38;98854.10;;;2.78;67.20
41467;BME280;27205;53.690;19.948;2023-03-12T08:09:42;98868.30;;;2.87;65.73
41467;BME280;27205;53.690;19.948;2023-03-12T08:14:46;98867.61;;;3.05;65.52
41467;BME280;27205;53.690;19.948;2023-03-12T08:19:49;98871.59;;;3.51;64.75
41467;BME280;27205;53.690;19.948;2023-03-12T08:24:53;98878.59;;;3.71;63.34
41467;BME280;27205;53.690;19.948;2023-03-12T08:29:56;98871.69;;;3.68;62.08
41467;BME280;27205;53.690;19.948;2023-03-12T08:35:00;98874.02;;;3.68;61.55
41467;BME280;27205;53.690;19.948;2023-03-12T08:40:05;98890.67;;;3.76;61.35
41467;BME280;27205;53.690;19.948;2023-03-12T08:45:15;98913.88;;;3.71;60.17
41467;BME280;27205;53.690;19.948;2023-03-12T08:50:19;98902.25;;;3.62;60.55
41467;BME280;27205;53.690;19.948;2023-03-12T08:55:25;98918.29;;;3.70;60.26
41467;BME280;27205;53.690;19.948;2023-03-12T09:00:32;98927.79;;;3.72;59.94
41467;BME280;27205;53.690;19.948;2023-03-12T09:05:35;98926.91;;;3.80;59.24
41467;BME280;27205;53.690;19.948;2023-03-12T09:10:39;98929.65;;;3.76;59.51
41467;BME280;27205;53.690;19.948;2023-03-12T09:15:43;98921.80;;;3.73;59.88
41467;BME280;27205;53.690;19.948;2023-03-12T09:20:46;98925.20;;;3.72;59.44
41467;BME280;27205;53.690;19.948;2023-03-12T09:25:50;98944.05;;;3.89;58.61
41467;BME280;27205;53.690;19.948;2023-03-12T09:30:54;98939.29;;;3.97;58.29
41467;BME280;27205;53.690;19.948;2023-03-12T09:35:59;98973.04;;;4.14;56.22
41467;BME280;27205;53.690;19.948;2023-03-12T09:41:04;98975.40;;;4.28;55.39
41467;BME280;27205;53.690;19.948;2023-03-12T09:46:17;98972.04;;;4.51;54.57
41467;BME280;27205;53.690;19.948;2023-03-12T09:51:35;98973.70;;;4.61;54.60
41467;BME280;27205;53.690;19.948;2023-03-12T09:56:41;98976.95;;;4.86;53.76
41467;BME280;27205;53.690;19.948;2023-03-12T10:01:58;98994.23;;;4.86;53.08
41467;BME280;27205;53.690;19.948;2023-03-12T10:17:54;98979.89;;;5.19;52.00
41467;BME280;27205;53.690;19.948;2023-03-12T10:28:48;99022.29;;;4.53;53.10
41467;BME280;27205;53.690;19.948;2023-03-12T10:33:58;99079.77;;;4.03;55.87
41467;BME280;27205;53.690;19.948;2023-03-12T10:39:02;99080.37;;;3.54;58.59
41467;BME280;27205;53.690;19.948;2023-03-12T10:44:07;99100.60;;;3.20;61.20
41467;BME280;27205;53.690;19.948;2023-03-12T10:59:40;99092.73;;;3.45;59.19
41467;BME280;27205;53.690;19.948;2023-03-12T11:04:50;99093.80;;;3.80;57.64
41467;BME280;27205;53.690;19.948;2023-03-12T11:15:37;99103.67;;;3.64;54.84
41467;BME280;27205;53.690;19.948;2023-03-12T11:20:41;99106.13;;;4.08;53.93
41467;BME280;27205;53.690;19.948;2023-03-12T11:25:59;99112.10;;;4.74;52.65
41467;BME280;27205;53.690;19.948;2023-03-12T11:31:08;99117.56;;;5.12;50.29
41467;BME280;27205;53.690;19.948;2023-03-12T11:52:36;99166.14;;;4.91;50.34
41467;BME280;27205;53.690;19.948;2023-03-12T11:57:57;99140.24;;;4.99;50.48
41467;BME280;27205;53.690;19.948;2023-03-12T12:03:38;99137.20;;;4.71;50.65
41467;BME280;27205;53.690;19.948;2023-03-12T12:19:28;99158.81;;;4.13;51.53
41467;BME280;27205;53.690;19.948;2023-03-12T12:35:29;99164.17;;;4.22;49.77
41467;BME280;27205;53.690;19.948;2023-03-12T12:40:37;99194.59;;;4.21;48.83
41467;BME280;27205;53.690;19.948;2023-03-12T12:45:43;99189.05;;;4.18;48.20
41467;BME280;27205;53.690;19.948;2023-03-12T12:50:50;99185.41;;;4.26;48.22
41467;BME280;27205;53.690;19.948;2023-03-12T13:01:06;99175.61;;;4.71;47.78
41467;BME280;27205;53.690;19.948;2023-03-12T13:06:11;99192.21;;;4.84;47.60
41467;BME280;27205;53.690;19.948;2023-03-12T13:48:16;99223.25;;;5.74;46.78
41467;BME280;27205;53.690;19.948;2023-03-12T13:53:25;99229.89;;;5.66;46.58
41467;BME280;27205;53.690;19.948;2023-03-12T13:58:30;99240.06;;;5.49;46.24
41467;BME280;27205;53.690;19.948;2023-03-12T14:03:40;99252.98;;;5.61;46.40
41467;BME280;27205;53.690;19.948;2023-03-12T14:19:35;99261.67;;;5.43;45.74
41467;BME280;27205;53.690;19.948;2023-03-12T14:24:57;99262.85;;;5.39;46.23
41467;BME280;27205;53.690;19.948;2023-03-12T14:35:28;99264.91;;;5.50;46.24
41467;BME280;27205;53.690;19.948;2023-03-12T14:40:45;99262.92;;;5.77;46.39
41467;BME280;27205;53.690;19.948;2023-03-12T14:46:02;99259.21;;;5.95;46.26
41467;BME280;27205;53.690;19.948;2023-03-12T14:51:07;99263.86;;;6.01;46.00
41467;BME280;27205;53.690;19.948;2023-03-12T15:01:31;99259.48;;;6.86;45.03
41467;BME280;27205;53.690;19.948;2023-03-12T15:06:51;99270.36;;;7.64;44.29
41467;BME280;27205;53.690;19.948;2023-03-12T15:12:04;99272.41;;;7.87;44.51
41467;BME280;27205;53.690;19.948;2023-03-12T15:17:15;99271.98;;;7.76;45.11
41467;BME280;27205;53.690;19.948;2023-03-12T15:22:20;99279.12;;;8.27;44.06
41467;BME280;27205;53.690;19.948;2023-03-12T15:32:33;99282.70;;;8.82;44.82
41467;BME280;27205;53.690;19.948;2023-03-12T15:37:36;99282.95;;;8.39;44.77
41467;BME280;27205;53.690;19.948;2023-03-12T15:42:40;99276.67;;;7.73;44.96
41467;BME280;27205;53.690;19.948;2023-03-12T15:47:46;99275.70;;;7.08;45.02
41467;BME280;27205;53.690;19.948;2023-03-12T15:52:58;99274.58;;;6.58;45.36
41467;BME280;27205;53.690;19.948;2023-03-12T15:58:21;99276.17;;;5.94;45.38
41467;BME280;27205;53.690;19.948;2023-03-12T16:03:25;99276.51;;;5.53;45.63
41467;BME280;27205;53.690;19.948;2023-03-12T16:08:44;99275.16;;;5.09;45.66
41467;BME280;27205;53.690;19.948;2023-03-12T16:13:49;99271.65;;;4.70;45.84
41467;BME280;27205;53.690;19.948;2023-03-12T16:18:54;99276.01;;;4.45;46.11
41467;BME280;27205;53.690;19.948;2023-03-12T16:23:57;99274.71;;;4.19;46.17
41467;BME280;27205;53.690;19.948;2023-03-12T16:29:00;99279.25;;;3.91;46.38
41467;BME280;27205;53.690;19.948;2023-03-12T16:34:04;99279.27;;;3.68;46.28
41467;BME280;27205;53.690;19.948;2023-03-12T16:39:07;99281.98;;;3.47;46.39
41467;BME280;27205;53.690;19.948;2023-03-12T16:44:19;99287.95;;;3.28;46.40
41467;BME280;27205;53.690;19.948;2023-03-12T16:49:23;99289.22;;;3.10;46.78
41467;BME280;27205;53.690;19.948;2023-03-12T16:54:27;99299.33;;;2.94;46.67
41467;BME280;27205;53.690;19.948;2023-03-12T16:59:30;99304.70;;;2.79;46.69
41467;BME280;27205;53.690;19.948;2023-03-12T17:04:35;99310.85;;;2.63;46.72
41467;BME280;27205;53.690;19.948;2023-03-12T17:09:38;99313.23;;;2.47;47.08
41467;BME280;27205;53.690;19.948;2023-03-12T17:14:42;99320.05;;;2.27;47.29
41467;BME280;27205;53.690;19.948;2023-03-12T17:19:45;99330.33;;;2.08;47.52
41467;BME280;27205;53.690;19.948;2023-03-12T17:24:49;99333.41;;;1.92;47.71
41467;BME280;27205;53.690;19.948;2023-03-12T17:29:52;99329.79;;;1.79;47.88
41467;BME280;27205;53.690;19.948;2023-03-12T17:34:56;99326.02;;;1.72;48.02
41467;BME280;27205;53.690;19.948;2023-03-12T17:40:02;99319.69;;;1.68;48.06
41467;BME280;27205;53.690;19.948;2023-03-12T17:45:10;99315.02;;;1.65;48.00
41467;BME280;27205;53.690;19.948;2023-03-12T17:50:14;99323.55;;;1.58;47.88
41467;BME280;27205;53.690;19.948;2023-03-12T17:55:18;99320.02;;;1.54;47.88
41467;BME280;27205;53.690;19.948;2023-03-12T18:00:21;99324.16;;;1.56;48.05
41467;BME280;27205;53.690;19.948;2023-03-12T18:05:25;99327.23;;;1.63;47.87
41467;BME280;27205;53.690;19.948;2023-03-12T18:10:28;99334.09;;;1.62;47.84
41467;BME280;27205;53.690;19.948;2023-03-12T18:15:32;99346.77;;;1.60;47.93
41467;BME280;27205;53.690;19.948;2023-03-12T18:20:35;99348.66;;;1.59;47.89
41467;BME280;27205;53.690;19.948;2023-03-12T18:25:42;99362.98;;;1.57;48.02
41467;BME280;27205;53.690;19.948;2023-03-12T18:30:46;99361.63;;;1.48;48.33
41467;BME280;27205;53.690;19.948;2023-03-12T18:35:49;99355.80;;;1.39;48.35
41467;BME280;27205;53.690;19.948;2023-03-12T18:41:10;99359.30;;;1.39;48.67
41467;BME280;27205;53.690;19.948;2023-03-12T18:46:14;99367.52;;;1.34;49.00
41467;BME280;27205;53.690;19.948;2023-03-12T18:51:18;99361.96;;;1.20;49.31
41467;BME280;27205;53.690;19.948;2023-03-12T18:56:22;99365.68;;;1.24;49.31
41467;BME280;27205;53.690;19.948;2023-03-12T19:01:26;99367.70;;;1.16;49.40
41467;BME280;27205;53.690;19.948;2023-03-12T19:06:29;99372.39;;;1.11;49.72
41467;BME280;27205;53.690;19.948;2023-03-12T19:11:51;99374.91;;;1.13;49.99
41467;BME280;27205;53.690;19.948;2023-03-12T19:16:56;99383.33;;;1.21;50.39
41467;BME280;27205;53.690;19.948;2023-03-12T19:21:59;99388.04;;;1.22;50.12
41467;BME280;27205;53.690;19.948;2023-03-12T19:27:03;99393.70;;;1.11;50.58
41467;BME280;27205;53.690;19.948;2023-03-12T19:32:07;99396.36;;;1.24;50.50
41467;BME280;27205;53.690;19.948;2023-03-12T19:37:11;99389.41;;;1.19;51.16
41467;BME280;27205;53.690;19.948;2023-03-12T19:42:15;99388.95;;;1.34;51.21
41467;BME280;27205;53.690;19.948;2023-03-12T19:47:27;99398.10;;;1.40;51.00
41467;BME280;27205;53.690;19.948;2023-03-12T19:52:42;99395.89;;;1.38;51.55
41467;BME280;27205;53.690;19.948;2023-03-12T19:57:47;99394.10;;;1.35;51.50
41467;BME280;27205;53.690;19.948;2023-03-12T20:02:50;99386.61;;;1.34;51.51
41467;BME280;27205;53.690;19.948;2023-03-12T20:07:55;99380.21;;;1.36;52.27
41467;BME280;27205;53.690;19.948;2023-03-12T20:12:58;99374.52;;;1.40;52.26
41467;BME280;27205;53.690;19.948;2023-03-12T20:18:02;99368.48;;;1.44;52.07
41467;BME280;27205;53.690;19.948;2023-03-12T20:23:06;99368.84;;;1.48;52.07
41467;BME280;27205;53.690;19.948;2023-03-12T20:28:15;99363.58;;;1.54;52.45
41467;BME280;27205;53.690;19.948;2023-03-12T20:33:19;99360.04;;;1.63;52.51
41467;BME280;27205;53.690;19.948;2023-03-12T20:38:23;99361.31;;;1.68;52.81
41467;BME280;27205;53.690;19.948;2023-03-12T20:43:27;99361.62;;;1.71;53.15
41467;BME280;27205;53.690;19.948;2023-03-12T20:48:30;99373.55;;;1.72;53.46
41467;BME280;27205;53.690;19.948;2023-03-12T20:53:34;99375.76;;;1.74;53.16
41467;BME280;27205;53.690;19.948;2023-03-12T20:58:38;99378.48;;;1.73;53.46
41467;BME280;27205;53.690;19.948;2023-03-12T21:03:41;99382.45;;;1.76;53.26
41467;BME280;27205;53.690;19.948;2023-03-12T21:08:44;99378.30;;;1.62;53.39
41467;BME280;27205;53.690;19.948;2023-03-12T21:13:48;99370.45;;;1.56;53.72
41467;BME280;27205;53.690;19.948;2023-03-12T21:18:55;99358.57;;;1.60;53.74
41467;BME280;27205;53.690;19.948;2023-03-12T21:23:59;99349.59;;;1.59;53.97
41467;BME280;27205;53.690;19.948;2023-03-12T21:29:03;99342.94;;;1.58;54.29
41467;BME280;27205;53.690;19.948;2023-03-12T21:34:06;99342.00;;;1.72;54.00
41467;BME280;27205;53.690;19.948;2023-03-12T21:39:12;99328.84;;;1.70;54.01
41467;BME280;27205;53.690;19.948;2023-03-12T21:44:15;99322.34;;;1.76;54.40
41467;BME280;27205;53.690;19.948;2023-03-12T21:49:19;99312.66;;;1.88;54.26
41467;BME280;27205;53.690;19.948;2023-03-12T21:54:22;99307.39;;;1.93;54.43
41467;BME280;27205;53.690;19.948;2023-03-12T21:59:26;99293.94;;;1.97;54.63
41467;BME280;27205;53.690;19.948;2023-03-12T22:04:29;99291.46;;;2.02;54.58
41467;BME280;27205;53.690;19.948;2023-03-12T22:09:34;99281.19;;;2.07;54.82
41467;BME280;27205;53.690;19.948;2023-03-12T22:14:37;99280.02;;;2.09;54.88
41467;BME280;27205;53.690;19.948;2023-03-12T22:19:41;99274.96;;;2.10;55.08
41467;BME280;27205;53.690;19.948;2023-03-12T22:24:44;99275.83;;;2.07;55.27
41467;BME280;27205;53.690;19.948;2023-03-12T22:29:48;99276.77;;;2.01;55.43
41467;BME280;27205;53.690;19.948;2023-03-12T22:34:54;99278.85;;;1.90;55.34
41467;BME280;27205;53.690;19.948;2023-03-12T22:39:58;99278.10;;;1.80;55.48
41467;BME280;27205;53.690;19.948;2023-03-12T22:45:04;99277.66;;;1.70;55.60
41467;BME280;27205;53.690;19.948;2023-03-12T22:50:08;99286.76;;;1.57;55.73
41467;BME280;27205;53.690;19.948;2023-03-12T22:55:12;99281.91;;;1.46;55.93
41467;BME280;27205;53.690;19.948;2023-03-12T23:00:19;99269.46;;;1.45;55.99
41467;BME280;27205;53.690;19.948;2023-03-12T23:05:26;99269.04;;;1.43;56.13
41467;BME280;27205;53.690;19.948;2023-03-12T23:10:29;99270.96;;;1.43;56.25
41467;BME280;27205;53.690;19.948;2023-03-12T23:15:33;99263.20;;;1.41;56.53
41467;BME280;27205;53.690;19.948;2023-03-12T23:20:44;99258.94;;;1.50;56.49
41467;BME280;27205;53.690;19.948;2023-03-12T23:25:52;99260.04;;;1.53;56.34
41467;BME280;27205;53.690;19.948;2023-03-12T23:31:01;99257.14;;;1.54;56.52
41467;BME280;27205;53.690;19.948;2023-03-12T23:36:07;99250.48;;;1.57;56.77
41467;BME280;27205;53.690;19.948;2023-03-12T23:46:16;99263.42;;;1.60;57.01
41467;BME280;27205;53.690;19.948;2023-03-12T23:51:22;99257.98;;;1.57;57.34
41467;BME280;27205;53.690;19.948;2023-03-12T23:56:30;99250.47;;;1.55;57.61
